Time;durP1;ratioP1;P1;durP2;ratioP2;P2;SDS_P1;SDS_P2;PMS_P1;PMS_P2;Temp;Humidity;BMP_temperature;BMP_pressure;BME280_temperature;BME280_humidity;BME280_pressure;Samples;Min_cycle;Max_cycle;Signal;HPM_P1;HPM_P2
2022/05/30 00:02:21;;;;;;;5.72;1.70;;;8.20;99.90;;;;;;4963129;29;20126;-53
2022/05/30 00:04:47;;;;;;;5.50;1.48;;;8.20;99.90;;;;;;4963082;29;20062;-53
2022/05/30 00:07:13;;;;;;;5.43;1.80;;;8.00;99.90;;;;;;4962638;29;20043;-54
2022/05/30 00:09:38;;;;;;;8.32;1.80;;;8.10;99.90;;;;;;4949875;29;20040;-53
2022/05/30 00:12:04;;;;;;;6.78;1.48;;;7.90;99.90;;;;;;4945484;29;20110;-53
2022/05/30 00:14:31;;;;;;;7.45;1.67;;;7.90;99.90;;;;;;4944108;29;20581;-50
2022/05/30 00:16:57;;;;;;;4.90;1.50;;;7.70;99.90;;;;;;4943241;29;20051;-50
2022/05/30 00:19:23;;;;;;;3.95;1.45;;;7.60;99.90;;;;;;4960378;29;20043;-50
2022/05/30 00:21:49;;;;;;;6.78;1.50;;;7.70;99.90;;;;;;4947410;29;20047;-53
2022/05/30 00:24:14;;;;;;;5.45;1.40;;;7.80;99.90;;;;;;4959439;29;20510;-49
2022/05/30 00:26:40;;;;;;;5.22;1.15;;;7.70;99.90;;;;;;4910869;29;20861;-53
2022/05/30 00:29:07;;;;;;;4.72;1.45;;;7.50;99.90;;;;;;4930695;29;20051;-49
2022/05/30 00:31:33;;;;;;;3.65;1.20;;;7.60;99.90;;;;;;4963178;29;20045;-51
2022/05/30 00:33:59;;;;;;;5.05;1.50;;;7.60;99.90;;;;;;4944803;29;20066;-49
2022/05/30 00:36:25;;;;;;;5.32;1.40;;;7.60;99.90;;;;;;4962466;29;20048;-51
2022/05/30 00:38:51;;;;;;;6.75;1.95;;;7.70;99.90;;;;;;4944967;29;20058;-51
2022/05/30 00:41:17;;;;;;;6.10;1.50;;;7.60;99.90;;;;;;4959714;29;20047;-50
2022/05/30 00:43:47;;;;;;;5.57;1.70;;;7.80;99.90;;;;;;4952548;29;20047;-49
2022/05/30 00:46:15;;;;;;;5.35;1.75;;;7.90;99.90;;;;;;4961712;29;20057;-52
2022/05/30 00:49:12;;;;;;;5.53;1.48;;;7.90;99.90;;;;;;4963023;29;20111;-53
2022/05/30 00:51:47;;;;;;;5.40;1.70;;;8.00;99.90;;;;;;4943076;29;20074;-53
2022/05/30 00:54:19;;;;;;;3.83;1.38;;;8.10;99.90;;;;;;4942509;29;20051;-51
2022/05/30 00:56:49;;;;;;;7.03;1.65;;;8.00;99.90;;;;;;4943093;29;20081;-52
2022/05/30 00:59:15;;;;;;;6.32;1.42;;;8.20;99.90;;;;;;4942479;29;20088;-53
2022/05/30 01:01:41;;;;;;;4.18;1.30;;;8.20;99.90;;;;;;4943971;29;20085;-50
2022/05/30 01:06:55;;;;;;;4.97;1.35;;;8.20;99.90;;;;;;4980971;28;20051;-53
2022/05/30 01:09:28;;;;;;;8.18;2.10;;;8.20;99.90;;;;;;4964100;28;20073;-55
2022/05/30 01:12:00;;;;;;;3.85;1.40;;;8.20;99.90;;;;;;4966362;28;20046;-55
2022/05/30 01:14:35;;;;;;;6.38;1.52;;;8.30;99.90;;;;;;4962335;29;20059;-52
2022/05/30 01:17:02;;;;;;;3.85;1.40;;;8.20;99.90;;;;;;4944241;29;20088;-49
2022/05/30 01:19:49;;;;;;;9.48;1.80;;;8.20;99.90;;;;;;4951589;29;20047;-51
2022/05/30 01:22:36;;;;;;;5.38;1.80;;;8.20;99.90;;;;;;4953578;29;20499;-52
2022/05/30 01:25:23;;;;;;;6.85;2.65;;;8.10;99.90;;;;;;4941617;29;20059;-52
2022/05/30 01:27:48;;;;;;;6.45;2.00;;;8.20;99.90;;;;;;4960812;29;20066;-53
2022/05/30 01:30:16;;;;;;;5.20;1.38;;;8.00;99.90;;;;;;4950884;29;20066;-51
2022/05/30 01:32:41;;;;;;;5.97;1.92;;;8.20;99.90;;;;;;4942200;29;20039;-52
2022/05/30 01:35:08;;;;;;;5.55;1.75;;;8.20;99.90;;;;;;4925172;29;20052;-50
2022/05/30 01:37:33;;;;;;;3.70;1.60;;;8.00;99.90;;;;;;4941599;29;20100;-52
2022/05/30 01:39:59;;;;;;;3.40;1.25;;;8.10;99.90;;;;;;4943046;29;20423;-52
2022/05/30 01:42:25;;;;;;;5.55;1.50;;;8.00;99.90;;;;;;4952496;29;20047;-50
2022/05/30 01:44:51;;;;;;;3.83;1.40;;;8.10;99.90;;;;;;4954128;29;20039;-50
2022/05/30 01:47:17;;;;;;;3.67;1.40;;;7.90;99.90;;;;;;4950010;29;20056;-51
2022/05/30 01:49:43;;;;;;;6.10;1.63;;;7.90;99.90;;;;;;4924632;29;20052;-51
2022/05/30 01:52:09;;;;;;;5.72;1.15;;;8.00;99.90;;;;;;4957908;29;20534;-51
2022/05/30 01:54:35;;;;;;;5.60;1.80;;;8.00;99.90;;;;;;4956263;29;20046;-51
2022/05/30 01:57:01;;;;;;;5.47;1.88;;;7.90;99.90;;;;;;4961390;29;20055;-50
2022/05/30 01:59:26;;;;;;;7.63;1.63;;;7.80;99.90;;;;;;4960643;29;20055;-49
2022/05/30 02:01:52;;;;;;;5.50;2.00;;;7.90;99.90;;;;;;4940844;29;20079;-52
2022/05/30 02:04:18;;;;;;;5.93;1.80;;;7.80;99.90;;;;;;4930566;29;20075;-50
2022/05/30 02:06:44;;;;;;;3.08;1.10;;;7.90;99.90;;;;;;4960816;29;20486;-52
2022/05/30 02:09:10;;;;;;;6.40;1.38;;;7.90;99.90;;;;;;4960914;29;20046;-53
2022/05/30 02:11:36;;;;;;;5.10;1.80;;;7.90;99.90;;;;;;4960408;29;20039;-53
2022/05/30 02:14:03;;;;;;;4.53;1.60;;;7.90;99.90;;;;;;4941789;29;20063;-51
2022/05/30 02:19:16;;;;;;;6.78;2.17;;;7.90;99.90;;;;;;4941822;29;20083;-52
2022/05/30 02:21:41;;;;;;;6.10;1.52;;;7.90;99.90;;;;;;4943781;29;20046;-50
2022/05/30 02:24:08;;;;;;;6.18;1.65;;;7.90;99.90;;;;;;4960284;29;20079;-52
2022/05/30 02:26:35;;;;;;;4.75;1.50;;;8.00;99.90;;;;;;4947965;29;20042;-49
2022/05/30 02:29:02;;;;;;;5.65;1.60;;;7.90;99.90;;;;;;4956433;29;20281;-50
2022/05/30 02:31:28;;;;;;;4.75;1.65;;;7.90;99.90;;;;;;4942224;29;20048;-49
2022/05/30 02:36:39;;;;;;;9.10;2.08;;;7.70;99.90;;;;;;4945781;29;20055;-52
2022/05/30 02:39:06;;;;;;;5.60;2.20;;;7.60;99.90;;;;;;4960462;29;20059;-49
2022/05/30 02:41:32;;;;;;;7.60;1.83;;;7.60;99.90;;;;;;4960166;29;20082;-54
2022/05/30 02:43:57;;;;;;;7.85;2.17;;;7.40;99.90;;;;;;4961175;29;20047;-53
2022/05/30 02:46:24;;;;;;;7.68;2.05;;;7.50;99.90;;;;;;4959996;29;20043;-52
2022/05/30 02:48:49;;;;;;;6.80;2.00;;;7.50;99.90;;;;;;4959054;29;20103;-52
2022/05/30 02:51:15;;;;;;;8.02;2.25;;;7.40;99.90;;;;;;4960171;29;20059;-52
2022/05/30 02:53:41;;;;;;;6.55;2.60;;;7.40;99.90;;;;;;4930206;29;20094;-50
2022/05/30 02:56:08;;;;;;;9.20;2.47;;;7.20;99.90;;;;;;4955057;28;20063;-50
2022/05/30 02:58:33;;;;;;;11.18;2.67;;;7.30;99.90;;;;;;4959373;29;20062;-52
2022/05/30 03:00:59;;;;;;;5.50;2.40;;;7.30;99.90;;;;;;4956123;29;20423;-52
2022/05/30 03:03:25;;;;;;;9.15;2.58;;;7.20;99.90;;;;;;4959709;29;20047;-53
2022/05/30 03:05:50;;;;;;;14.55;3.22;;;7.40;99.90;;;;;;4960891;29;20051;-51
2022/05/30 03:08:16;;;;;;;6.40;2.53;;;7.30;99.90;;;;;;4959993;29;20098;-51
2022/05/30 03:10:42;;;;;;;9.60;2.80;;;7.30;99.90;;;;;;4958270;29;20054;-51
2022/05/30 03:13:07;;;;;;;8.93;3.08;;;7.30;99.90;;;;;;4940821;29;20472;-52
2022/05/30 03:15:33;;;;;;;8.90;2.72;;;7.30;99.90;;;;;;4940759;29;20549;-50
2022/05/30 03:18:01;;;;;;;8.52;2.88;;;7.20;99.90;;;;;;4941537;29;20047;-53
2022/05/30 03:20:27;;;;;;;8.75;3.30;;;7.40;99.90;;;;;;4923004;29;20083;-52
2022/05/30 03:22:53;;;;;;;7.25;2.70;;;7.40;99.90;;;;;;4940473;29;20051;-50
2022/05/30 03:25:19;;;;;;;7.13;2.22;;;7.40;99.90;;;;;;4960692;28;20039;-50
2022/05/30 03:27:45;;;;;;;9.77;2.35;;;7.50;99.90;;;;;;4963686;29;20036;-52
2022/05/30 03:30:13;;;;;;;9.15;2.80;;;7.60;99.90;;;;;;4953728;29;20043;-51
2022/05/30 03:32:39;;;;;;;7.72;2.55;;;7.50;99.90;;;;;;4948831;29;20070;-52
2022/05/30 03:35:05;;;;;;;8.05;2.55;;;7.50;99.90;;;;;;4963888;29;20066;-49
2022/05/30 03:37:31;;;;;;;6.35;2.50;;;7.60;99.90;;;;;;4931637;29;20048;-51
2022/05/30 03:39:57;;;;;;;9.68;2.95;;;7.70;99.90;;;;;;4944980;29;20091;-52
2022/05/30 03:42:23;;;;;;;5.47;2.53;;;7.70;99.90;;;;;;4941360;29;20054;-49
2022/05/30 03:44:49;;;;;;;8.65;2.72;;;7.70;99.90;;;;;;4963730;29;20135;-50
2022/05/30 03:47:15;;;;;;;9.43;2.83;;;7.80;99.90;;;;;;4963334;29;20039;-52
2022/05/30 03:49:41;;;;;;;11.63;2.75;;;7.90;99.90;;;;;;4951857;29;20043;-50
2022/05/30 03:52:08;;;;;;;7.22;2.67;;;8.00;99.90;;;;;;4947093;29;20087;-50
2022/05/30 03:54:33;;;;;;;6.50;2.63;;;8.00;99.90;;;;;;4959318;28;20044;-53
2022/05/30 03:56:59;;;;;;;6.93;2.60;;;8.00;99.90;;;;;;4961237;29;20047;-52
2022/05/30 03:59:25;;;;;;;7.90;2.53;;;8.00;99.90;;;;;;4962708;29;20051;-51
2022/05/30 04:01:50;;;;;;;7.40;2.70;;;8.00;99.90;;;;;;4929678;29;20110;-49
2022/05/30 04:04:16;;;;;;;8.93;2.92;;;8.10;99.90;;;;;;4959383;29;20047;-52
2022/05/30 04:06:42;;;;;;;5.95;2.58;;;8.00;99.90;;;;;;4958902;29;20617;-49
2022/05/30 04:09:08;;;;;;;7.88;2.70;;;8.00;99.90;;;;;;4943778;29;20075;-51
2022/05/30 04:11:34;;;;;;;7.63;2.55;;;8.10;99.90;;;;;;4949607;29;20534;-50
2022/05/30 04:14:00;;;;;;;8.95;2.60;;;8.00;99.90;;;;;;4963636;29;20059;-51
2022/05/30 04:16:26;;;;;;;10.35;2.92;;;8.20;99.90;;;;;;4962132;29;20043;-50
2022/05/30 04:18:52;;;;;;;7.90;2.33;;;8.20;99.90;;;;;;4963149;29;20055;-50
2022/05/30 04:21:17;;;;;;;7.97;2.63;;;8.20;99.90;;;;;;4962608;29;20089;-53
2022/05/30 04:23:43;;;;;;;8.93;3.05;;;8.20;99.90;;;;;;4961165;29;20039;-49
2022/05/30 04:26:16;;;;;;;6.60;2.50;;;8.10;99.90;;;;;;4945971;29;20499;-50
2022/05/30 04:28:42;;;;;;;6.95;2.28;;;8.10;99.90;;;;;;4939879;29;20117;-53
2022/05/30 04:31:12;;;;;;;6.45;2.50;;;8.10;99.90;;;;;;4940854;29;20107;-52
2022/05/30 04:33:39;;;;;;;7.38;2.60;;;8.10;99.90;;;;;;4952290;29;20598;-52
2022/05/30 04:36:10;;;;;;;7.50;2.42;;;8.10;99.90;;;;;;4951778;29;20051;-52
2022/05/30 04:38:36;;;;;;;7.60;2.55;;;8.20;99.90;;;;;;4941223;29;20056;-51
2022/05/30 04:41:02;;;;;;;6.03;2.75;;;8.20;99.90;;;;;;4952150;29;20111;-48
2022/05/30 04:43:28;;;;;;;6.72;2.40;;;8.20;99.90;;;;;;4923015;29;20052;-51
2022/05/30 04:46:14;;;;;;;5.65;1.95;;;8.20;99.90;;;;;;4931730;29;20050;-50
2022/05/30 04:48:41;;;;;;;6.25;2.47;;;8.30;99.90;;;;;;4961318;29;20047;-52
2022/05/30 04:51:06;;;;;;;7.55;2.25;;;8.40;99.90;;;;;;4944167;29;20080;-50
2022/05/30 04:53:32;;;;;;;7.45;2.50;;;8.30;99.90;;;;;;4944763;29;20090;-51
2022/05/30 04:55:58;;;;;;;8.52;2.72;;;8.20;99.90;;;;;;4960762;28;20134;-51
2022/05/30 04:58:25;;;;;;;6.53;2.00;;;8.20;99.90;;;;;;4950195;29;20052;-50
2022/05/30 05:00:56;;;;;;;7.13;1.75;;;8.30;99.90;;;;;;4943124;29;20055;-50
2022/05/30 05:03:22;;;;;;;7.00;2.22;;;8.20;99.90;;;;;;4959384;29;20051;-52
2022/05/30 05:05:48;;;;;;;4.75;2.00;;;8.40;99.90;;;;;;4963341;28;20044;-52
2022/05/30 05:08:16;;;;;;;5.80;2.33;;;8.60;99.90;;;;;;4947495;29;20055;-50
2022/05/30 05:10:58;;;;;;;7.03;2.42;;;8.90;99.90;;;;;;4925529;29;20087;-51
2022/05/30 05:13:23;;;;;;;8.75;2.00;;;9.10;99.90;;;;;;4925467;29;20055;-51
2022/05/30 05:15:49;;;;;;;6.60;1.83;;;9.30;99.90;;;;;;4941961;29;20079;-52
2022/05/30 05:18:15;;;;;;;4.28;1.58;;;9.20;99.90;;;;;;4943383;29;20087;-50
2022/05/30 05:20:42;;;;;;;9.15;2.10;;;9.30;99.90;;;;;;4924968;29;20048;-51
2022/05/30 05:23:08;;;;;;;6.30;1.88;;;9.10;99.90;;;;;;4942747;29;20508;-51
2022/05/30 05:25:40;;;;;;;7.38;1.85;;;9.20;99.90;;;;;;4942137;29;20107;-51
2022/05/30 05:28:07;;;;;;;5.38;2.03;;;9.20;99.90;;;;;;4944648;29;20074;-48
2022/05/30 05:30:33;;;;;;;5.45;1.55;;;9.60;99.90;;;;;;4942039;29;20075;-51
2022/05/30 05:32:59;;;;;;;6.90;2.25;;;9.60;99.90;;;;;;4941727;29;20047;-49
2022/05/30 05:35:24;;;;;;;7.63;1.83;;;9.60;99.90;;;;;;4950423;29;20159;-50
2022/05/30 05:37:51;;;;;;;5.40;1.38;;;9.50;99.90;;;;;;4960214;29;20061;-49
2022/05/30 05:40:17;;;;;;;7.53;1.60;;;9.50;99.90;;;;;;4950891;29;20463;-50
2022/05/30 05:42:43;;;;;;;5.72;1.90;;;9.40;99.90;;;;;;4955570;29;20067;-52
2022/05/30 05:45:10;;;;;;;6.32;1.50;;;9.50;99.90;;;;;;4960552;29;20039;-51
2022/05/30 05:47:36;;;;;;;5.97;1.80;;;9.70;99.90;;;;;;4961328;29;20047;-52
2022/05/30 05:50:02;;;;;;;5.28;1.50;;;9.50;99.90;;;;;;4960100;28;20070;-49
2022/05/30 05:52:28;;;;;;;4.72;1.77;;;9.50;99.90;;;;;;4961735;29;20055;-51
2022/05/30 05:54:55;;;;;;;7.95;2.20;;;9.40;99.90;;;;;;4960505;29;20103;-52
2022/05/30 05:57:22;;;;;;;6.28;1.67;;;9.60;99.90;;;;;;4944009;29;20063;-52
2022/05/30 05:59:47;;;;;;;3.92;1.38;;;9.70;99.90;;;;;;4943185;29;20066;-51
2022/05/30 06:02:13;;;;;;;3.70;1.25;;;9.70;99.90;;;;;;4943690;29;20152;-50
2022/05/30 06:04:39;;;;;;;4.70;1.15;;;9.80;99.90;;;;;;4933605;29;20126;-52
2022/05/30 06:07:06;;;;;;;6.82;1.50;;;9.80;99.90;;;;;;4943105;29;20510;-49
2022/05/30 06:09:32;;;;;;;3.47;1.10;;;9.60;99.90;;;;;;4961607;29;20066;-51
2022/05/30 06:11:59;;;;;;;4.75;1.27;;;9.80;99.90;;;;;;4939728;29;20039;-52
2022/05/30 06:14:25;;;;;;;5.72;1.00;;;9.80;99.90;;;;;;4942535;29;20058;-50
2022/05/30 06:16:51;;;;;;;5.68;1.52;;;9.70;99.90;;;;;;4941046;29;20095;-49
2022/05/30 06:19:18;;;;;;;6.18;1.10;;;9.70;99.90;;;;;;4941302;29;20055;-54
2022/05/30 06:21:43;;;;;;;4.95;2.72;;;9.80;99.90;;;;;;4952101;29;20123;-49
2022/05/30 06:24:10;;;;;;;4.22;1.20;;;9.90;99.90;;;;;;4942797;29;20452;-52
2022/05/30 06:26:36;;;;;;;3.88;1.00;;;9.90;99.90;;;;;;4960837;29;20431;-49
2022/05/30 06:29:03;;;;;;;4.25;1.10;;;10.00;99.90;;;;;;4959671;29;20102;-53
2022/05/30 06:31:30;;;;;;;4.72;1.25;;;10.00;99.90;;;;;;4961212;29;20592;-54
2022/05/30 06:33:58;;;;;;;3.97;1.10;;;10.10;99.90;;;;;;4959482;29;20075;-49
2022/05/30 06:36:25;;;;;;;4.05;1.10;;;10.20;99.90;;;;;;4947190;29;20067;-51
2022/05/30 06:38:52;;;;;;;3.40;0.93;;;10.20;99.90;;;;;;4958228;29;20142;-50
2022/05/30 06:41:29;;;;;;;3.63;1.10;;;10.20;99.90;;;;;;4942547;29;20044;-49
2022/05/30 06:44:02;;;;;;;4.95;1.38;;;10.10;99.90;;;;;;4949528;29;20059;-52
2022/05/30 06:46:29;;;;;;;3.33;1.20;;;10.10;99.90;;;;;;4959614;29;20051;-52
2022/05/30 06:48:56;;;;;;;4.82;1.02;;;10.00;99.90;;;;;;4930679;29;20058;-53
2022/05/30 06:51:23;;;;;;;3.80;1.27;;;10.00;99.90;;;;;;4939898;29;20051;-54
2022/05/30 06:53:49;;;;;;;4.30;1.45;;;9.90;99.90;;;;;;4940981;29;20067;-55
2022/05/30 06:56:18;;;;;;;4.22;1.35;;;9.70;99.90;;;;;;4959410;29;20062;-57
2022/05/30 06:58:45;;;;;;;6.32;1.33;;;9.70;99.90;;;;;;4959394;29;20051;-58
2022/05/30 07:01:10;;;;;;;4.60;1.60;;;9.60;99.90;;;;;;4963029;28;20047;-58
2022/05/30 07:03:38;;;;;;;7.15;1.50;;;9.70;99.90;;;;;;4962504;29;20047;-56
2022/05/30 07:06:13;;;;;;;3.65;1.08;;;9.80;99.90;;;;;;4963695;29;20176;-56
2022/05/30 07:08:39;;;;;;;5.07;1.20;;;9.80;99.90;;;;;;4955498;29;20047;-56
2022/05/30 07:11:06;;;;;;;6.25;1.75;;;9.90;99.90;;;;;;4952794;29;20057;-56
2022/05/30 07:13:32;;;;;;;5.63;1.15;;;10.00;99.90;;;;;;4954804;29;20046;-56
2022/05/30 07:15:58;;;;;;;7.38;1.40;;;10.10;99.90;;;;;;4946617;29;20103;-56
2022/05/30 07:18:24;;;;;;;5.32;1.70;;;10.30;99.90;;;;;;4956483;29;20095;-54
2022/05/30 07:21:03;;;;;;;4.45;1.55;;;10.60;99.90;;;;;;4962364;29;20051;-55
2022/05/30 07:23:31;;;;;;;5.97;1.52;;;10.80;99.90;;;;;;4944542;29;20098;-55
2022/05/30 07:26:02;;;;;;;4.75;1.23;;;11.00;99.90;;;;;;4946380;29;20074;-53
2022/05/30 07:28:31;;;;;;;5.78;1.40;;;10.80;99.90;;;;;;4963001;29;20054;-55
2022/05/30 07:31:09;;;;;;;6.75;1.33;;;10.70;99.90;;;;;;4964177;29;20101;-55
2022/05/30 07:33:36;;;;;;;3.45;1.15;;;10.60;99.90;;;;;;4962442;29;20062;-55
2022/05/30 07:36:05;;;;;;;2.83;1.15;;;10.60;99.90;;;;;;4962199;29;20039;-55
2022/05/30 07:38:31;;;;;;;5.55;1.30;;;10.50;99.90;;;;;;4959801;29;20065;-55
2022/05/30 07:40:56;;;;;;;4.43;1.20;;;10.50;99.90;;;;;;4943409;29;20099;-55
2022/05/30 07:43:22;;;;;;;4.90;1.40;;;10.60;99.90;;;;;;4943429;29;20079;-54
2022/05/30 07:45:48;;;;;;;6.50;1.40;;;10.50;99.90;;;;;;4943052;29;20087;-53
2022/05/30 07:48:14;;;;;;;6.72;1.50;;;10.50;99.90;;;;;;4945780;29;20047;-53
2022/05/30 07:50:39;;;;;;;5.43;1.33;;;10.50;99.90;;;;;;4954714;29;20039;-55
2022/05/30 07:53:05;;;;;;;4.25;1.00;;;10.60;99.90;;;;;;4951215;29;20058;-55
2022/05/30 07:55:32;;;;;;;6.80;1.20;;;10.50;99.90;;;;;;4962302;28;20050;-54
2022/05/30 07:58:04;;;;;;;4.20;1.17;;;10.50;99.90;;;;;;4945064;29;20047;-53
2022/05/30 08:00:34;;;;;;;4.72;1.27;;;10.90;99.90;;;;;;4961999;29;20047;-52
2022/05/30 08:03:00;;;;;;;5.32;1.38;;;11.30;99.90;;;;;;4957384;29;20052;-53
2022/05/30 08:05:26;;;;;;;4.90;1.10;;;11.20;99.90;;;;;;4942556;29;20047;-50
2022/05/30 08:07:52;;;;;;;6.82;1.63;;;11.10;99.90;;;;;;4962037;29;20074;-54
2022/05/30 08:10:19;;;;;;;4.85;1.15;;;10.80;99.90;;;;;;4962239;29;20094;-54
2022/05/30 08:12:46;;;;;;;8.45;1.33;;;10.40;99.90;;;;;;4958040;28;20051;-56
2022/05/30 08:15:14;;;;;;;6.18;1.35;;;9.90;99.90;;;;;;4943283;29;20052;-57
2022/05/30 08:17:40;;;;;;;3.92;1.00;;;9.50;99.90;;;;;;4947799;29;20048;-58
2022/05/30 08:20:10;;;;;;;6.47;1.40;;;9.20;99.90;;;;;;4961176;29;20059;-58
2022/05/30 08:22:36;;;;;;;6.53;1.50;;;9.40;99.90;;;;;;4956445;29;20047;-57
2022/05/30 08:25:09;;;;;;;3.78;1.42;;;9.70;99.90;;;;;;4950388;29;20158;-57
2022/05/30 08:27:35;;;;;;;5.22;1.60;;;9.40;99.90;;;;;;4955480;29;20047;-57
2022/05/30 08:30:01;;;;;;;4.82;1.40;;;9.40;99.90;;;;;;4945267;29;20043;-57
2022/05/30 08:32:38;;;;;;;4.68;1.27;;;9.40;99.90;;;;;;4962222;29;20051;-57
2022/05/30 08:35:05;;;;;;;3.80;1.17;;;9.50;99.90;;;;;;4962695;29;20234;-56
2022/05/30 08:37:33;;;;;;;5.35;1.83;;;9.40;99.90;;;;;;4933093;29;20579;-56
2022/05/30 08:42:51;;;;;;;4.57;1.45;;;9.60;99.90;;;;;;4958967;29;20058;-57
2022/05/30 08:45:20;;;;;;;5.10;1.42;;;9.70;99.90;;;;;;4944822;29;20043;-56
2022/05/30 08:47:55;;;;;;;7.70;1.70;;;10.00;99.90;;;;;;4956222;29;20043;-56
2022/05/30 08:50:47;;;;;;;5.95;1.80;;;9.90;99.90;;;;;;4961346;29;20074;-56
2022/05/30 08:53:26;;;;;;;5.97;1.88;;;10.00;99.90;;;;;;4929429;29;20051;-57
2022/05/30 08:56:01;;;;;;;6.22;1.58;;;10.20;99.90;;;;;;4954573;28;20059;-56
2022/05/30 08:58:41;;;;;;;6.28;2.05;;;10.20;99.90;;;;;;4961697;29;20063;-55
2022/05/30 09:01:17;;;;;;;5.20;1.70;;;10.40;99.90;;;;;;4962596;29;20864;-55
2022/05/30 09:04:16;;;;;;;4.25;1.30;;;10.50;99.90;;;;;;4960679;29;20051;-54
2022/05/30 09:06:47;;;;;;;5.22;1.60;;;10.50;99.90;;;;;;4961598;29;20070;-56
2022/05/30 09:09:35;;;;;;;5.47;2.03;;;10.60;99.90;;;;;;4944286;29;20511;-55
2022/05/30 09:12:08;;;;;;;3.78;1.30;;;10.70;99.90;;;;;;4960803;29;20054;-55
2022/05/30 09:14:55;;;;;;;5.68;1.30;;;10.60;99.90;;;;;;4945093;29;20058;-55
2022/05/30 09:17:32;;;;;;;6.30;1.55;;;10.80;99.90;;;;;;4961606;29;20047;-55
2022/05/30 09:20:01;;;;;;;2.05;0.82;;;10.90;99.90;;;;;;4941394;29;20316;-55
2022/05/30 09:22:27;;;;;;;3.88;0.90;;;10.90;99.90;;;;;;4951522;28;20063;-54
2022/05/30 09:27:37;;;;;;;2.90;1.10;;;11.20;99.90;;;;;;4959084;29;20053;-54
2022/05/30 09:30:07;;;;;;;1.55;0.65;;;11.10;99.90;;;;;;4927166;29;20079;-53
2022/05/30 09:33:01;;;;;;;1.70;0.68;;;11.10;99.90;;;;;;4960886;29;20049;-52
2022/05/30 09:35:31;;;;;;;2.00;0.80;;;11.20;99.90;;;;;;4962092;29;20053;-53
2022/05/30 09:38:19;;;;;;;2.63;0.85;;;11.50;99.90;;;;;;4960860;29;20043;-54
2022/05/30 09:40:49;;;;;;;3.10;1.00;;;11.60;99.90;;;;;;4957222;29;20526;-53
2022/05/30 09:43:38;;;;;;;2.47;0.70;;;11.80;99.90;;;;;;4942302;29;20548;-53
2022/05/30 09:46:36;;;;;;;3.25;0.80;;;11.80;99.90;;;;;;4924016;29;20083;-51
2022/05/30 09:49:07;;;;;;;2.63;0.70;;;12.10;99.90;;;;;;4941687;29;20071;-52
2022/05/30 09:51:36;;;;;;;2.90;0.88;;;12.10;99.90;;;;;;4941401;29;20533;-52
2022/05/30 09:54:02;;;;;;;2.97;0.80;;;12.00;99.90;;;;;;4924151;29;20134;-54
2022/05/30 09:56:29;;;;;;;4.45;1.17;;;12.00;99.90;;;;;;4951106;28;20061;-53
2022/05/30 09:58:59;;;;;;;3.10;0.90;;;11.90;99.90;;;;;;4946716;28;20052;-49
2022/05/30 10:01:27;;;;;;;2.40;1.00;;;11.90;99.90;;;;;;4946004;28;20103;-48
2022/05/30 10:03:59;;;;;;;2.83;0.93;;;11.70;99.90;;;;;;4944512;28;20618;-50
2022/05/30 10:06:27;;;;;;;4.60;0.77;;;11.40;99.90;;;;;;4947763;28;20047;-49
2022/05/30 10:09:12;;;;;;;2.25;0.60;;;11.30;99.90;;;;;;4946175;28;20047;-54
2022/05/30 10:11:38;;;;;;;2.88;0.80;;;11.20;99.90;;;;;;4948329;28;20048;-54
2022/05/30 10:14:22;;;;;;;3.67;0.95;;;11.00;99.90;;;;;;4947845;28;20071;-53
2022/05/30 10:16:49;;;;;;;2.25;0.80;;;10.80;99.90;;;;;;4946444;28;20060;-52
2022/05/30 10:19:28;;;;;;;4.18;1.17;;;10.60;99.90;;;;;;4944802;28;20047;-51
2022/05/30 10:28:28;;;;;;;1.90;0.80;;;10.60;99.90;;;;;;4947923;28;20087;-56
2022/05/30 10:31:13;;;;;;;3.63;0.95;;;10.60;99.90;;;;;;4947185;28;20047;-57
2022/05/30 10:34:00;;;;;;;2.88;0.88;;;10.60;99.90;;;;;;4948045;28;20051;-56
2022/05/30 10:36:34;;;;;;;4.90;1.00;;;10.70;99.90;;;;;;4949522;28;20040;-56
2022/05/30 10:39:26;;;;;;;3.88;1.15;;;10.70;99.90;;;;;;4952136;28;20130;-56
2022/05/30 10:42:09;;;;;;;1.85;0.90;;;10.70;99.90;;;;;;4953390;28;20039;-56
2022/05/30 10:44:39;;;;;;;3.08;0.82;;;10.90;99.90;;;;;;4952312;28;20066;-55
2022/05/30 10:47:41;;;;;;;2.53;0.88;;;11.00;99.90;;;;;;4951606;28;20039;-54
2022/05/30 10:50:46;;;;;;;3.55;1.10;;;11.10;99.90;;;;;;4951608;28;20095;-54
2022/05/30 10:53:30;;;;;;;1.95;0.70;;;11.30;99.90;;;;;;4950794;28;20148;-55
2022/05/30 10:56:02;;;;;;;2.15;0.80;;;11.60;99.90;;;;;;4950766;28;20095;-54
2022/05/30 10:58:44;;;;;;;2.45;0.68;;;11.70;99.90;;;;;;4950378;28;20518;-55
2022/05/30 11:01:19;;;;;;;2.33;0.80;;;11.80;99.90;;;;;;4952414;28;20499;-54
2022/05/30 11:04:00;;;;;;;1.70;0.70;;;11.90;99.90;;;;;;4948911;28;20047;-54
2022/05/30 11:06:33;;;;;;;5.00;0.90;;;11.90;99.90;;;;;;4949148;28;20589;-55
2022/05/30 11:09:07;;;;;;;2.95;0.90;;;12.00;99.90;;;;;;4951335;28;20062;-54
2022/05/30 11:11:48;;;;;;;2.63;0.80;;;12.10;99.90;;;;;;4951929;28;20131;-56
2022/05/30 11:14:32;;;;;;;3.40;0.65;;;12.10;99.90;;;;;;4932932;28;20111;-55
2022/05/30 11:17:01;;;;;;;1.88;0.60;;;12.20;99.90;;;;;;4950261;28;20055;-53
2022/05/30 11:19:35;;;;;;;2.35;0.70;;;12.40;99.90;;;;;;4950500;28;20042;-57
2022/05/30 11:22:09;;;;;;;2.05;0.70;;;12.50;99.90;;;;;;4950930;28;20044;-55
2022/05/30 11:24:37;;;;;;;1.60;0.60;;;12.40;99.90;;;;;;4950006;28;20054;-54
2022/05/30 11:27:13;;;;;;;1.83;0.60;;;12.30;99.90;;;;;;4931060;28;20542;-51
2022/05/30 11:29:41;;;;;;;1.77;0.60;;;12.10;99.90;;;;;;4951153;28;20086;-53
2022/05/30 11:32:24;;;;;;;2.10;0.60;;;12.10;99.90;;;;;;4949783;28;20054;-52
2022/05/30 11:35:08;;;;;;;;;;;12.00;99.90;;;;;;4932580;28;20061;-55
2022/05/30 11:37:59;;;;;;;1.65;0.70;;;11.90;99.90;;;;;;4932847;28;19954;-52
2022/05/30 11:40:56;;;;;;;2.75;0.90;;;11.60;99.90;;;;;;4949216;28;20111;-54
2022/05/30 11:43:21;;;;;;;4.45;1.10;;;11.20;99.90;;;;;;4950251;28;20995;-58
2022/05/30 11:46:22;;;;;;;2.85;1.23;;;10.80;99.90;;;;;;4947900;28;20047;-58
2022/05/30 11:49:06;;;;;;;3.47;1.15;;;10.50;99.90;;;;;;4931732;28;20517;-59
2022/05/30 11:51:37;;;;;;;3.00;1.02;;;10.50;99.90;;;;;;4950106;28;20047;-59
2022/05/30 11:54:21;;;;;;;4.63;1.10;;;10.50;99.90;;;;;;4948932;28;20102;-58
2022/05/30 11:56:47;;;;;;;4.32;1.20;;;10.60;99.90;;;;;;4937612;29;20087;-58
2022/05/30 11:59:40;;;;;;;5.18;1.42;;;10.80;99.90;;;;;;4947861;29;20058;-58
2022/05/30 12:02:13;;;;;;;4.22;1.13;;;10.80;99.90;;;;;;4950375;29;20051;-58
2022/05/30 12:04:57;;;;;;;5.00;1.33;;;10.80;99.90;;;;;;4934603;29;20050;-57
2022/05/30 12:07:40;;;;;;;6.70;1.92;;;11.20;99.90;;;;;;4962171;29;20149;-56
2022/05/30 12:10:34;;;;;;;4.00;1.30;;;11.20;99.90;;;;;;4962903;29;20043;-57
2022/05/30 12:13:38;;;;;;;1.58;1.00;;;11.40;99.90;;;;;;4944313;29;20134;-57
2022/05/30 12:16:12;;;;;;;3.83;1.20;;;11.50;99.90;;;;;;4933259;29;20043;-56
2022/05/30 12:24:40;;;;;;;3.20;1.20;;;11.50;99.90;;;;;;4947027;29;20086;-55
2022/05/30 12:27:12;;;;;;;2.97;0.93;;;11.30;99.90;;;;;;4934063;29;20058;-54
2022/05/30 12:29:38;;;;;;;5.22;1.40;;;11.10;99.90;;;;;;4917502;29;20055;-58
2022/05/30 12:32:12;;;;;;;4.40;1.17;;;11.00;99.90;;;;;;4949951;29;20066;-57
2022/05/30 12:37:52;;;;;;;5.28;1.20;;;11.00;99.90;;;;;;4951320;29;20051;-57
2022/05/30 12:40:27;;;;;;;4.72;1.40;;;10.90;99.90;;;;;;4951349;29;20035;-58
2022/05/30 12:43:16;;;;;;;5.43;1.60;;;10.90;99.90;;;;;;4952306;29;20047;-58
2022/05/30 12:45:56;;;;;;;9.27;2.00;;;11.00;99.90;;;;;;4949550;29;20059;-58
2022/05/30 12:48:38;;;;;;;3.63;1.38;;;11.00;99.90;;;;;;4947803;29;20074;-58
2022/05/30 12:51:24;;;;;;;4.82;1.40;;;11.10;99.90;;;;;;4949435;29;20043;-57
2022/05/30 12:53:58;;;;;;;6.60;1.52;;;11.20;99.90;;;;;;4949728;29;20059;-57
2022/05/30 12:56:43;;;;;;;8.00;2.80;;;11.20;99.90;;;;;;4949328;28;20511;-56
2022/05/30 12:59:29;;;;;;;5.20;1.70;;;11.10;99.90;;;;;;4952182;28;20051;-57
2022/05/30 13:01:57;;;;;;;6.88;1.80;;;11.10;99.90;;;;;;4951383;28;20075;-58
2022/05/30 13:04:26;;;;;;;5.32;1.63;;;11.00;99.90;;;;;;4951961;28;20130;-58
2022/05/30 13:06:58;;;;;;;6.43;2.05;;;11.10;99.90;;;;;;4949126;28;20075;-57
2022/05/30 13:09:40;;;;;;;7.80;2.25;;;10.90;99.90;;;;;;4952658;28;20039;-59
2022/05/30 13:12:14;;;;;;;6.90;2.50;;;10.70;99.90;;;;;;4949187;28;20167;-57
2022/05/30 13:14:59;;;;;;;7.28;2.22;;;10.90;99.90;;;;;;4933188;28;20071;-57
2022/05/30 13:17:31;;;;;;;6.13;1.88;;;10.90;99.90;;;;;;4950009;28;20650;-57
2022/05/30 13:20:02;;;;;;;;;;;10.80;99.90;;;;;;4950987;28;20052;-56
2022/05/30 13:22:31;;;;;;;6.88;2.30;;;11.10;99.90;;;;;;4951454;28;19923;-56
2022/05/30 13:24:56;;;;;;;8.73;2.03;;;11.10;99.90;;;;;;4951085;28;20147;-56
2022/05/30 13:27:24;;;;;;;6.40;1.83;;;11.10;99.90;;;;;;4950907;28;20079;-54
2022/05/30 13:29:50;;;;;;;6.18;1.88;;;11.30;99.90;;;;;;4950317;28;20058;-55
2022/05/30 13:32:20;;;;;;;8.05;2.30;;;11.50;99.90;;;;;;4950145;28;20035;-55
2022/05/30 13:34:49;;;;;;;5.25;2.08;;;11.70;99.90;;;;;;4948786;28;20399;-54
2022/05/30 13:37:24;;;;;;;5.55;2.30;;;11.90;99.90;;;;;;4932739;28;20044;-54
2022/05/30 13:39:51;;;;;;;4.90;1.60;;;11.80;99.90;;;;;;4950777;28;20118;-54
2022/05/30 13:42:17;;;;;;;5.05;1.48;;;11.80;99.90;;;;;;4950302;28;20055;-56